createdAt,value
2023-05-21T00:00:37.969Z,989.29
2023-05-21T00:01:37.953Z,989.30
2023-05-21T00:02:38.088Z,989.30
2023-05-21T00:03:38.050Z,989.25
2023-05-21T00:04:38.070Z,989.23
2023-05-21T00:05:39.245Z,989.26
2023-05-21T00:06:37.945Z,989.22
2023-05-21T00:07:37.908Z,989.23
2023-05-21T00:08:37.899Z,989.27
2023-05-21T00:09:37.924Z,989.23
2023-05-21T00:10:37.867Z,989.26
2023-05-21T00:11:37.870Z,989.21
2023-05-21T00:12:37.880Z,989.24
2023-05-21T00:13:37.834Z,989.21
2023-05-21T00:14:37.852Z,989.23
2023-05-21T00:15:38.029Z,989.25
2023-05-21T00:16:37.850Z,989.20
2023-05-21T00:17:37.817Z,989.20
2023-05-21T00:18:37.791Z,989.20
2023-05-21T00:19:37.797Z,989.06
2023-05-21T00:20:37.796Z,989.05
2023-05-21T00:21:37.801Z,989.09
2023-05-21T00:22:37.775Z,989.09
2023-05-21T00:23:37.792Z,989.13
2023-05-21T00:24:37.782Z,989.05
2023-05-21T00:25:37.826Z,989.13
2023-05-21T00:26:37.732Z,989.11
2023-05-21T00:27:37.734Z,989.13
2023-05-21T00:28:37.706Z,989.11
2023-05-21T00:29:37.709Z,989.09
2023-05-21T00:30:37.682Z,989.09
2023-05-21T00:31:37.727Z,989.05
2023-05-21T00:32:37.718Z,989.10
2023-05-21T00:33:37.647Z,989.05
2023-05-21T00:34:37.650Z,989.05
2023-05-21T00:35:37.784Z,989.06
2023-05-21T00:36:37.654Z,989.05
2023-05-21T00:37:37.619Z,989.07
2023-05-21T00:38:37.588Z,989.05
2023-05-21T00:39:37.618Z,989.02
2023-05-21T00:40:37.626Z,989.04
2023-05-21T00:41:37.562Z,989.06
2023-05-21T00:42:37.548Z,988.97
2023-05-21T00:43:37.570Z,989.01
2023-05-21T00:44:37.541Z,989.03
2023-05-21T00:45:38.071Z,989.00
2023-05-21T00:46:37.515Z,989.00
2023-05-21T00:47:37.564Z,988.97
2023-05-21T00:48:37.526Z,989.00
2023-05-21T00:49:37.467Z,989.00
2023-05-21T00:50:37.468Z,988.92
2023-05-21T00:51:37.457Z,988.99
2023-05-21T00:52:37.459Z,988.96
2023-05-21T00:53:37.445Z,988.93
2023-05-21T00:54:37.469Z,988.98
2023-05-21T00:55:37.749Z,988.94
2023-05-21T00:56:37.552Z,988.97
2023-05-21T00:57:37.412Z,988.94
2023-05-21T00:58:37.450Z,988.93
2023-05-21T00:59:38.387Z,988.92
2023-05-21T01:00:37.432Z,988.93
2023-05-21T01:01:37.504Z,988.95
2023-05-21T01:02:37.692Z,988.93
2023-05-21T01:03:37.405Z,988.87
2023-05-21T01:04:37.347Z,988.91
2023-05-21T01:05:37.485Z,988.94
2023-05-21T01:06:37.335Z,988.93
2023-05-21T01:07:37.289Z,988.92
2023-05-21T01:08:37.281Z,988.97
2023-05-21T01:09:37.357Z,988.91
2023-05-21T01:10:37.283Z,988.90
2023-05-21T01:11:37.266Z,988.90
2023-05-21T01:12:37.253Z,988.90
2023-05-21T01:13:37.236Z,988.88
2023-05-21T01:14:37.267Z,988.83
2023-05-21T01:15:37.404Z,988.82
2023-05-21T01:16:37.267Z,988.84
2023-05-21T01:17:37.229Z,988.85
2023-05-21T01:18:37.267Z,988.79
2023-05-21T01:19:37.213Z,988.82
2023-05-21T01:20:37.190Z,988.80
2023-05-21T01:21:37.218Z,988.81
2023-05-21T01:22:37.140Z,988.77
2023-05-21T01:23:37.162Z,988.81
2023-05-21T01:24:37.166Z,988.82
2023-05-21T01:25:37.328Z,988.81
2023-05-21T01:26:37.118Z,988.80
2023-05-21T01:27:37.204Z,988.76
2023-05-21T01:28:37.112Z,988.82
2023-05-21T01:29:37.105Z,988.72
2023-05-21T01:30:37.086Z,988.76
2023-05-21T01:31:37.087Z,988.76
2023-05-21T01:32:37.083Z,988.78
2023-05-21T01:33:37.104Z,988.75
2023-05-21T01:34:37.072Z,988.75
2023-05-21T01:35:37.251Z,988.72
2023-05-21T01:36:37.023Z,988.70
2023-05-21T01:37:37.025Z,988.75
2023-05-21T01:38:36.986Z,988.73
2023-05-21T01:39:37.003Z,988.61
2023-05-21T01:40:36.996Z,988.69
2023-05-21T01:41:36.959Z,988.57
2023-05-21T01:42:36.982Z,988.70
2023-05-21T01:43:36.964Z,988.66
2023-05-21T01:44:36.962Z,988.66
2023-05-21T01:45:37.074Z,988.60
2023-05-21T01:46:36.938Z,988.60
2023-05-21T01:47:36.928Z,988.63
2023-05-21T01:48:36.907Z,988.58
2023-05-21T01:49:36.876Z,988.63
2023-05-21T01:50:36.877Z,988.64
2023-05-21T01:51:36.894Z,988.59
2023-05-21T01:52:36.851Z,988.62
2023-05-21T01:53:36.882Z,988.62
2023-05-21T01:54:36.834Z,988.67
2023-05-21T01:55:37.108Z,988.60
2023-05-21T01:56:36.824Z,988.66
2023-05-21T01:57:36.800Z,988.64
2023-05-21T01:58:36.779Z,988.65
2023-05-21T01:59:36.792Z,988.65
2023-05-21T02:00:36.799Z,988.64
2023-05-21T02:01:36.796Z,988.63
2023-05-21T02:02:36.796Z,988.65
2023-05-21T02:03:36.921Z,988.59
2023-05-21T02:04:36.733Z,988.62
2023-05-21T02:05:36.987Z,988.61
2023-05-21T02:06:36.706Z,988.59
2023-05-21T02:07:36.700Z,988.65
2023-05-21T02:08:36.700Z,988.57
2023-05-21T02:09:36.673Z,988.58
2023-05-21T02:10:36.728Z,988.58
2023-05-21T02:11:36.646Z,988.62
2023-05-21T02:12:36.668Z,988.62
2023-05-21T02:13:36.625Z,988.60
2023-05-21T02:14:36.638Z,988.63
2023-05-21T02:15:36.889Z,988.65
2023-05-21T02:16:36.716Z,988.63
2023-05-21T02:17:36.626Z,988.57
2023-05-21T02:18:36.625Z,988.57
2023-05-21T02:19:36.683Z,988.60
2023-05-21T02:20:36.611Z,988.61
2023-05-21T02:21:36.555Z,988.53
2023-05-21T02:22:36.556Z,988.52
2023-05-21T02:23:36.580Z,988.50
2023-05-21T02:24:36.527Z,988.50
2023-05-21T02:25:36.906Z,988.60
2023-05-21T02:26:36.567Z,988.51
2023-05-21T02:27:36.550Z,988.51
2023-05-21T02:28:36.565Z,988.53
2023-05-21T02:29:36.512Z,988.55
2023-05-21T02:30:36.502Z,988.53
2023-05-21T02:31:36.454Z,988.54
2023-05-21T02:32:36.520Z,988.54
2023-05-21T02:33:36.525Z,988.55
2023-05-21T02:34:36.451Z,988.54
2023-05-21T02:35:36.755Z,988.48
2023-05-21T02:36:36.440Z,988.55
2023-05-21T02:37:36.452Z,988.48
2023-05-21T02:38:36.395Z,988.54
2023-05-21T02:39:36.376Z,988.57
2023-05-21T02:40:36.406Z,988.56
2023-05-21T02:41:36.374Z,988.55
2023-05-21T02:42:36.362Z,988.61
2023-05-21T02:43:36.354Z,988.49
2023-05-21T02:44:36.324Z,988.50
2023-05-21T02:45:36.609Z,988.57
2023-05-21T02:46:36.341Z,988.46
2023-05-21T02:47:36.316Z,988.49
2023-05-21T02:48:36.378Z,988.53
2023-05-21T02:49:36.292Z,988.46
2023-05-21T02:50:36.265Z,988.48
2023-05-21T02:51:36.304Z,988.55
2023-05-21T02:52:36.259Z,988.51
2023-05-21T02:53:36.259Z,988.50
2023-05-21T02:54:36.238Z,988.53
2023-05-21T02:55:36.447Z,988.54
2023-05-21T02:56:36.238Z,988.58
2023-05-21T02:57:36.228Z,988.55
2023-05-21T02:58:36.203Z,988.55
2023-05-21T02:59:36.188Z,988.53
2023-05-21T03:00:36.199Z,988.57
2023-05-21T03:01:36.269Z,988.46
2023-05-21T03:02:36.240Z,988.47
2023-05-21T03:03:36.186Z,988.45
2023-05-21T03:04:36.182Z,988.44
2023-05-21T03:05:36.272Z,988.44
2023-05-21T03:06:36.119Z,988.45
2023-05-21T03:07:37.109Z,988.43
2023-05-21T03:08:36.127Z,988.44
2023-05-21T03:09:36.100Z,988.44
2023-05-21T03:10:36.158Z,988.45
2023-05-21T03:11:36.110Z,988.48
2023-05-21T03:12:36.049Z,988.47
2023-05-21T03:13:36.086Z,988.41
2023-05-21T03:14:36.023Z,988.38
2023-05-21T03:15:36.126Z,988.42
2023-05-21T03:16:36.069Z,988.38
2023-05-21T03:17:36.081Z,988.42
2023-05-21T03:18:35.992Z,988.38
2023-05-21T03:19:36.080Z,988.41
2023-05-21T03:20:35.966Z,988.42
2023-05-21T03:21:35.960Z,988.39
2023-05-21T03:22:35.959Z,988.40
2023-05-21T03:23:35.967Z,988.38
2023-05-21T03:24:35.937Z,988.45
2023-05-21T03:25:36.276Z,988.41
2023-05-21T03:26:35.950Z,988.50
2023-05-21T03:27:35.894Z,988.45
2023-05-21T03:28:35.904Z,988.48
2023-05-21T03:29:35.944Z,988.43
2023-05-21T03:30:35.915Z,988.42
2023-05-21T03:31:35.933Z,988.46
2023-05-21T03:32:35.894Z,988.44
2023-05-21T03:33:35.844Z,988.52
2023-05-21T03:34:35.872Z,988.50
2023-05-21T03:35:36.065Z,988.49
2023-05-21T03:36:35.822Z,988.49
2023-05-21T03:37:35.847Z,988.48
2023-05-21T03:38:37.077Z,988.46
2023-05-21T03:39:36.809Z,988.51
2023-05-21T03:40:35.794Z,988.52
2023-05-21T03:41:35.829Z,988.55
2023-05-21T03:42:35.764Z,988.52
2023-05-21T03:43:35.748Z,988.54
2023-05-21T03:44:35.758Z,988.48
2023-05-21T03:45:35.993Z,988.56
2023-05-21T03:46:35.782Z,988.51
2023-05-21T03:47:35.760Z,988.46
2023-05-21T03:48:35.716Z,988.47
2023-05-21T03:49:35.709Z,988.51
2023-05-21T03:50:35.685Z,988.49
2023-05-21T03:51:35.695Z,988.44
2023-05-21T03:52:35.709Z,988.53
2023-05-21T03:53:35.652Z,988.47
2023-05-21T03:54:35.644Z,988.55
2023-05-21T03:55:35.797Z,988.49
2023-05-21T03:56:36.628Z,988.53
2023-05-21T03:57:35.596Z,988.52
2023-05-21T03:58:35.596Z,988.54
2023-05-21T03:59:35.611Z,988.56
2023-05-21T04:00:35.620Z,988.48
2023-05-21T04:01:35.576Z,988.55
2023-05-21T04:02:35.626Z,988.48
2023-05-21T04:03:36.728Z,988.54
2023-05-21T04:04:35.608Z,988.55
2023-05-21T04:05:35.782Z,988.59
2023-05-21T04:06:35.547Z,988.55
2023-05-21T04:07:35.554Z,988.64
2023-05-21T04:08:35.537Z,988.63
2023-05-21T04:09:36.676Z,988.56
2023-05-21T04:10:36.536Z,988.67
2023-05-21T04:11:35.474Z,988.64
2023-05-21T04:12:35.454Z,988.64
2023-05-21T04:13:35.462Z,988.61
2023-05-21T04:14:35.457Z,988.65
2023-05-21T04:15:35.678Z,988.58
2023-05-21T04:16:35.537Z,988.67
2023-05-21T04:17:35.482Z,988.68
2023-05-21T04:18:35.403Z,988.62
2023-05-21T04:19:35.582Z,988.66
2023-05-21T04:20:35.380Z,988.66
2023-05-21T04:21:35.375Z,988.66
2023-05-21T04:22:35.471Z,988.66
2023-05-21T04:23:35.359Z,988.61
2023-05-21T04:24:35.402Z,988.66
2023-05-21T04:25:35.576Z,988.63
2023-05-21T04:26:35.354Z,988.60
2023-05-21T04:27:35.378Z,988.56
2023-05-21T04:28:35.310Z,988.62
2023-05-21T04:29:35.336Z,988.55
2023-05-21T04:30:35.332Z,988.52
2023-05-21T04:31:35.344Z,988.54
2023-05-21T04:32:35.313Z,988.57
2023-05-21T04:33:35.269Z,988.57
2023-05-21T04:34:35.295Z,988.57
2023-05-21T04:35:35.478Z,988.60
2023-05-21T04:36:35.241Z,988.49
2023-05-21T04:37:35.384Z,988.54
2023-05-21T04:38:35.206Z,988.55
2023-05-21T04:39:35.224Z,988.52
2023-05-21T04:40:36.940Z,988.55
2023-05-21T04:41:35.172Z,988.55
2023-05-21T04:42:35.187Z,988.54
2023-05-21T04:43:35.159Z,988.57
2023-05-21T04:44:35.179Z,988.56
2023-05-21T04:45:35.414Z,988.53
2023-05-21T04:46:35.229Z,988.47
2023-05-21T04:47:35.142Z,988.51
2023-05-21T04:48:35.230Z,988.45
2023-05-21T04:49:35.121Z,988.47
2023-05-21T04:50:35.118Z,988.41
2023-05-21T04:51:35.118Z,988.43
2023-05-21T04:52:35.093Z,988.41
2023-05-21T04:53:35.069Z,988.50
2023-05-21T04:54:35.081Z,988.45
2023-05-21T04:56:06.947Z,988.47
2023-05-21T04:56:35.030Z,988.49
2023-05-21T04:57:35.003Z,988.47
2023-05-21T04:58:35.004Z,988.48
2023-05-21T04:59:35.005Z,988.47
2023-05-21T05:00:35.024Z,988.48
2023-05-21T05:01:34.975Z,988.45
2023-05-21T05:02:35.969Z,988.50
2023-05-21T05:03:35.015Z,988.52
2023-05-21T05:04:34.962Z,988.52
2023-05-21T05:05:35.288Z,988.53
2023-05-21T05:06:34.935Z,988.54
2023-05-21T05:07:34.911Z,988.56
2023-05-21T05:08:34.897Z,988.51
2023-05-21T05:09:34.948Z,988.47
2023-05-21T05:10:34.881Z,988.51
2023-05-21T05:11:34.912Z,988.47
2023-05-21T05:12:34.860Z,988.62
2023-05-21T05:13:34.945Z,988.54
2023-05-21T05:14:34.834Z,988.54
2023-05-21T05:16:06.766Z,988.54
2023-05-21T05:16:34.861Z,988.53
2023-05-21T05:17:34.826Z,988.53
2023-05-21T05:18:34.783Z,988.49
2023-05-21T05:19:34.929Z,988.55
2023-05-21T05:20:34.826Z,988.54
2023-05-21T05:21:34.784Z,988.49
2023-05-21T05:22:34.753Z,988.47
2023-05-21T05:23:34.736Z,988.51
2023-05-21T05:24:34.750Z,988.50
2023-05-21T05:25:34.791Z,988.49
2023-05-21T05:26:34.741Z,988.50
2023-05-21T05:27:36.997Z,988.47
2023-05-21T05:28:34.695Z,988.47
2023-05-21T05:29:34.685Z,988.53
2023-05-21T05:30:34.698Z,988.49
2023-05-21T05:31:34.751Z,988.53
2023-05-21T05:32:34.668Z,988.56
2023-05-21T05:33:34.624Z,988.51
2023-05-21T05:34:34.625Z,988.57
2023-05-21T05:35:34.800Z,988.52
2023-05-21T05:36:34.619Z,988.51
2023-05-21T05:37:34.624Z,988.60
2023-05-21T05:38:34.585Z,988.56
2023-05-21T05:39:34.567Z,988.56
2023-05-21T05:40:34.560Z,988.60
2023-05-21T05:41:34.552Z,988.58
2023-05-21T05:42:34.591Z,988.57
2023-05-21T05:43:34.544Z,988.58
2023-05-21T05:44:34.546Z,988.51
2023-05-21T05:45:34.677Z,988.56
2023-05-21T05:46:34.511Z,988.52
2023-05-21T05:47:34.516Z,988.53
2023-05-21T05:48:34.494Z,988.54
2023-05-21T05:49:34.476Z,988.48
2023-05-21T05:50:34.468Z,988.51
2023-05-21T05:51:34.574Z,988.51
2023-05-21T05:52:34.451Z,988.55
2023-05-21T05:53:34.464Z,988.54
2023-05-21T05:54:34.441Z,988.53
2023-05-21T05:55:34.622Z,988.50
2023-05-21T05:56:34.416Z,988.55
2023-05-21T05:57:34.442Z,988.55
2023-05-21T05:58:34.408Z,988.58
2023-05-21T05:59:34.394Z,988.63
2023-05-21T06:00:34.380Z,988.57
2023-05-21T06:01:34.397Z,988.60
2023-05-21T06:02:34.421Z,988.52
2023-05-21T06:03:34.518Z,988.55
2023-05-21T06:04:34.327Z,988.50
2023-05-21T06:05:34.459Z,988.48
2023-05-21T06:06:34.379Z,988.51
2023-05-21T06:07:34.287Z,988.49
2023-05-21T06:08:37.360Z,988.47
2023-05-21T06:09:34.259Z,988.49
2023-05-21T06:10:34.276Z,988.51
2023-05-21T06:11:34.283Z,988.51
2023-05-21T06:12:35.244Z,988.53
2023-05-21T06:13:34.240Z,988.47
2023-05-21T06:14:34.227Z,988.53
2023-05-21T06:15:34.272Z,988.50
2023-05-21T06:16:34.363Z,988.51
2023-05-21T06:17:34.207Z,988.46
2023-05-21T06:18:34.174Z,988.48
2023-05-21T06:19:34.302Z,988.40
2023-05-21T06:20:34.169Z,988.43
2023-05-21T06:21:34.146Z,988.38
2023-05-21T06:22:34.144Z,988.41
2023-05-21T06:23:34.115Z,988.44
2023-05-21T06:24:34.194Z,988.41
2023-05-21T06:25:34.210Z,988.44
2023-05-21T06:26:34.109Z,988.48
2023-05-21T06:27:34.094Z,988.45
2023-05-21T06:28:34.118Z,988.51
2023-05-21T06:29:34.102Z,988.47
2023-05-21T06:30:34.051Z,988.39
2023-05-21T06:31:34.046Z,988.36
2023-05-21T06:32:34.210Z,988.43
2023-05-21T06:33:34.178Z,988.43
2023-05-21T06:34:34.033Z,988.36
2023-05-21T06:35:34.137Z,988.44
2023-05-21T06:36:34.004Z,988.31
2023-05-21T06:37:33.994Z,988.34
2023-05-21T06:38:34.015Z,988.37
2023-05-21T06:39:34.018Z,988.39
2023-05-21T06:40:33.965Z,988.41
2023-05-21T06:41:33.961Z,988.41
2023-05-21T06:42:33.945Z,988.43
2023-05-21T06:43:34.010Z,988.43
2023-05-21T06:44:33.914Z,988.43
2023-05-21T06:45:33.938Z,988.43
2023-05-21T06:46:34.082Z,988.43
2023-05-21T06:47:33.925Z,988.42
2023-05-21T06:48:33.882Z,988.38
2023-05-21T06:49:33.859Z,988.35
2023-05-21T06:50:33.849Z,988.41
2023-05-21T06:51:33.856Z,988.45
2023-05-21T06:52:33.841Z,988.45
2023-05-21T06:53:33.844Z,988.48
2023-05-21T06:54:33.795Z,988.54
2023-05-21T06:55:33.888Z,988.45
2023-05-21T06:56:33.785Z,988.46
2023-05-21T06:57:33.789Z,988.48
2023-05-21T06:58:33.789Z,988.53
2023-05-21T06:59:33.761Z,988.45
2023-05-21T07:00:33.759Z,988.54
2023-05-21T07:01:33.775Z,988.47
2023-05-21T07:02:33.801Z,988.41
2023-05-21T07:03:33.764Z,988.46
2023-05-21T07:04:33.707Z,988.41
2023-05-21T07:05:33.697Z,988.42
2023-05-21T07:06:33.688Z,988.53
2023-05-21T07:07:33.714Z,988.45
2023-05-21T07:08:33.663Z,988.37
2023-05-21T07:09:33.657Z,988.40
2023-05-21T07:10:33.651Z,988.48
2023-05-21T07:11:33.641Z,988.44
2023-05-21T07:12:33.642Z,988.48
2023-05-21T07:13:33.628Z,988.46
2023-05-21T07:14:33.593Z,988.38
2023-05-21T07:15:33.661Z,988.38
2023-05-21T07:16:33.653Z,988.43
2023-05-21T07:17:33.614Z,988.41
2023-05-21T07:18:33.575Z,988.37
2023-05-21T07:19:33.624Z,988.30
2023-05-21T07:20:33.558Z,988.37
2023-05-21T07:21:33.533Z,988.34
2023-05-21T07:22:33.521Z,988.39
2023-05-21T07:23:33.524Z,988.27
2023-05-21T07:24:33.508Z,988.36
2023-05-21T07:25:33.493Z,988.35
2023-05-21T07:26:33.478Z,988.38
2023-05-21T07:27:33.472Z,988.34
2023-05-21T07:28:33.464Z,988.31
2023-05-21T07:29:33.492Z,988.27
2023-05-21T07:30:33.454Z,988.35
2023-05-21T07:31:33.476Z,988.36
2023-05-21T07:32:33.495Z,988.32
2023-05-21T07:33:33.393Z,988.30
2023-05-21T07:34:33.409Z,988.27
2023-05-21T07:35:33.400Z,988.31
2023-05-21T07:36:33.405Z,988.29
2023-05-21T07:37:33.399Z,988.39
2023-05-21T07:38:34.367Z,988.33
2023-05-21T07:39:33.386Z,988.33
2023-05-21T07:40:33.359Z,988.37
2023-05-21T07:41:33.437Z,988.34
2023-05-21T07:42:33.314Z,988.36
2023-05-21T07:43:33.337Z,988.37
2023-05-21T07:44:33.333Z,988.32
2023-05-21T07:45:33.300Z,988.36
2023-05-21T07:46:33.299Z,988.38
2023-05-21T07:47:33.314Z,988.31
2023-05-21T07:48:35.430Z,988.29
2023-05-21T07:49:34.261Z,988.21
2023-05-21T07:50:33.275Z,988.17
2023-05-21T07:51:33.236Z,988.21
2023-05-21T07:52:33.260Z,988.18
2023-05-21T07:53:33.220Z,988.22
2023-05-21T07:54:33.310Z,988.23
2023-05-21T07:55:33.196Z,988.26
2023-05-21T07:56:33.191Z,988.06
2023-05-21T07:57:33.217Z,988.10
2023-05-21T07:58:33.160Z,988.15
2023-05-21T07:59:33.162Z,988.11
2023-05-21T08:00:33.157Z,988.18
2023-05-21T08:01:33.166Z,988.12
2023-05-21T08:02:33.229Z,988.22
2023-05-21T08:03:33.306Z,988.20
2023-05-21T08:04:33.156Z,988.18
2023-05-21T08:05:33.123Z,988.18
2023-05-21T08:06:33.088Z,988.24
2023-05-21T08:07:33.089Z,988.10
2023-05-21T08:08:33.064Z,988.10
2023-05-21T08:09:33.083Z,988.16
2023-05-21T08:10:33.042Z,988.11
2023-05-21T08:11:33.090Z,988.07
2023-05-21T08:12:33.040Z,988.09
2023-05-21T08:13:33.026Z,988.12
2023-05-21T08:14:33.042Z,988.06
2023-05-21T08:15:32.996Z,988.18
2023-05-21T08:16:33.023Z,988.07
2023-05-21T08:17:33.013Z,988.10
2023-05-21T08:18:32.998Z,988.01
2023-05-21T08:19:33.052Z,988.09
2023-05-21T08:20:32.972Z,988.09
2023-05-21T08:21:32.942Z,988.10
2023-05-21T08:22:32.936Z,988.08
2023-05-21T08:23:32.938Z,988.10
2023-05-21T08:24:32.935Z,988.04
2023-05-21T08:25:32.893Z,988.03
2023-05-21T08:26:32.877Z,988.09
2023-05-21T08:27:32.889Z,988.04
2023-05-21T08:28:32.876Z,988.00
2023-05-21T08:29:32.857Z,988.02
2023-05-21T08:30:32.842Z,987.99
2023-05-21T08:31:32.875Z,987.88
2023-05-21T08:32:32.841Z,987.96
2023-05-21T08:33:32.820Z,988.03
2023-05-21T08:34:32.820Z,988.03
2023-05-21T08:35:32.792Z,987.98
2023-05-21T08:36:32.878Z,988.05
2023-05-21T08:37:32.782Z,988.05
2023-05-21T08:38:32.777Z,987.91
2023-05-21T08:39:32.765Z,988.05
2023-05-21T08:40:32.762Z,987.99
2023-05-21T08:41:32.731Z,987.95
2023-05-21T08:43:33.745Z,987.92
2023-05-21T08:44:32.732Z,987.94
2023-05-21T08:45:32.713Z,987.97
2023-05-21T08:46:32.712Z,987.93
2023-05-21T08:47:32.678Z,987.89
2023-05-21T08:48:32.675Z,987.93
2023-05-21T08:49:32.680Z,987.89
2023-05-21T08:50:32.648Z,987.87
2023-05-21T08:51:32.644Z,987.90
2023-05-21T08:52:32.627Z,987.96
2023-05-21T08:53:32.617Z,987.94
2023-05-21T08:54:32.657Z,987.88
2023-05-21T08:55:32.600Z,987.87
2023-05-21T08:56:32.599Z,987.83
2023-05-21T08:57:32.617Z,987.94
2023-05-21T08:58:32.569Z,987.83
2023-05-21T08:59:32.556Z,987.87
2023-05-21T09:00:32.561Z,987.87
2023-05-21T09:01:32.562Z,987.86
2023-05-21T09:02:32.548Z,987.99
2023-05-21T09:03:32.634Z,987.89
2023-05-21T09:04:32.563Z,987.84
2023-05-21T09:05:32.506Z,987.96
2023-05-21T09:06:32.541Z,987.93
2023-05-21T09:07:32.505Z,987.89
2023-05-21T09:08:32.494Z,987.91
2023-05-21T09:09:32.471Z,987.89
2023-05-21T09:10:32.465Z,987.80
2023-05-21T09:11:32.433Z,987.84
2023-05-21T09:12:32.446Z,987.83
2023-05-21T09:13:32.448Z,987.82
2023-05-21T09:14:32.414Z,987.95
2023-05-21T09:15:32.410Z,987.82
2023-05-21T09:16:32.422Z,987.86
2023-05-21T09:17:32.392Z,987.71
2023-05-21T09:18:32.382Z,987.85
2023-05-21T09:19:32.671Z,987.79
2023-05-21T09:20:32.355Z,987.87
2023-05-21T09:21:32.396Z,987.82
2023-05-21T09:22:32.323Z,987.76
2023-05-21T09:23:32.327Z,987.78
2023-05-21T09:24:33.718Z,987.78
2023-05-21T09:25:32.395Z,987.74
2023-05-21T09:26:32.374Z,987.63
2023-05-21T09:27:32.284Z,987.66
2023-05-21T09:28:32.286Z,987.82
2023-05-21T09:29:32.252Z,987.75
2023-05-21T09:30:34.809Z,987.76
2023-05-21T09:31:32.380Z,987.79
2023-05-21T09:32:32.309Z,987.75
2023-05-21T09:33:32.281Z,987.76
2023-05-21T09:34:32.209Z,987.73
2023-05-21T09:35:32.187Z,987.83
2023-05-21T09:36:32.244Z,987.73
2023-05-21T09:37:32.203Z,987.70
2023-05-21T09:38:32.191Z,987.74
2023-05-21T09:39:33.174Z,987.69
2023-05-21T09:40:32.189Z,987.72
2023-05-21T09:41:32.155Z,987.74
2023-05-21T09:42:32.125Z,987.67
2023-05-21T09:43:32.157Z,987.61
2023-05-21T09:44:32.110Z,987.68
2023-05-21T09:45:32.103Z,987.53
2023-05-21T09:46:32.144Z,987.61
2023-05-21T09:47:32.157Z,987.64
2023-05-21T09:48:32.099Z,987.67
2023-05-21T09:49:32.056Z,987.69
2023-05-21T09:50:32.050Z,987.59
2023-05-21T09:51:33.315Z,987.63
2023-05-21T09:52:32.040Z,987.64
2023-05-21T09:53:32.025Z,987.65
2023-05-21T09:54:32.024Z,987.66
2023-05-21T09:55:32.095Z,987.61
2023-05-21T09:56:32.016Z,987.63
2023-05-21T09:57:32.004Z,987.64
2023-05-21T09:58:31.957Z,987.57
2023-05-21T09:59:32.007Z,987.62
2023-05-21T10:00:32.021Z,987.58
2023-05-21T10:01:32.033Z,987.58
2023-05-21T10:02:32.971Z,987.52
2023-05-21T10:03:31.940Z,987.46
2023-05-21T10:04:31.948Z,987.50
2023-05-21T10:05:31.933Z,987.46
2023-05-21T10:06:31.955Z,987.55
2023-05-21T10:07:31.911Z,987.50
2023-05-21T10:08:31.868Z,987.49
2023-05-21T10:09:31.864Z,987.52
2023-05-21T10:10:32.030Z,987.41
2023-05-21T10:11:31.858Z,987.52
2023-05-21T10:12:31.853Z,987.46
2023-05-21T10:13:31.834Z,987.51
2023-05-21T10:14:31.862Z,987.57
2023-05-21T10:15:31.821Z,987.57
2023-05-21T10:16:31.882Z,987.57
2023-05-21T10:17:31.857Z,987.56
2023-05-21T10:18:31.771Z,987.58
2023-05-21T10:19:31.836Z,987.54
2023-05-21T10:20:31.759Z,987.57
2023-05-21T10:21:31.749Z,987.58
2023-05-21T10:22:31.780Z,987.55
2023-05-21T10:23:32.753Z,987.45
2023-05-21T10:24:31.729Z,987.44
2023-05-21T10:25:31.803Z,987.47
2023-05-21T10:26:31.725Z,987.54
2023-05-21T10:27:32.798Z,987.44
2023-05-21T10:28:31.692Z,987.41
2023-05-21T10:29:31.715Z,987.37
2023-05-21T10:30:31.675Z,987.43
2023-05-21T10:31:31.647Z,987.43
2023-05-21T10:32:31.876Z,987.43
2023-05-21T10:33:31.691Z,987.42
2023-05-21T10:34:31.627Z,987.32
2023-05-21T10:35:31.609Z,987.39
2023-05-21T10:36:31.599Z,987.40
2023-05-21T10:37:31.601Z,987.35
2023-05-21T10:38:31.596Z,987.36
2023-05-21T10:39:31.601Z,987.32
2023-05-21T10:40:31.559Z,987.30
2023-05-21T10:41:31.552Z,987.30
2023-05-21T10:42:31.557Z,987.27
2023-05-21T10:43:31.560Z,987.24
2023-05-21T10:44:31.544Z,987.27
2023-05-21T10:45:31.559Z,987.27
2023-05-21T10:46:31.509Z,987.25
2023-05-21T10:47:31.517Z,987.37
2023-05-21T10:48:31.517Z,987.32
2023-05-21T10:49:31.506Z,987.25
2023-05-21T10:50:31.527Z,987.25
2023-05-21T10:51:31.464Z,987.22
2023-05-21T10:52:31.450Z,987.20
2023-05-21T10:53:31.446Z,987.26
2023-05-21T10:54:31.435Z,987.17
2023-05-21T10:55:31.411Z,987.27
2023-05-21T10:57:03.427Z,987.20
2023-05-21T10:57:31.434Z,987.24
2023-05-21T10:58:31.384Z,987.27
2023-05-21T10:59:31.410Z,987.27
2023-05-21T11:00:31.366Z,987.31
2023-05-21T11:01:31.447Z,987.39
2023-05-21T11:02:31.497Z,987.26
2023-05-21T11:03:32.512Z,987.27
2023-05-21T11:04:31.334Z,987.29
2023-05-21T11:05:31.396Z,987.27
2023-05-21T11:06:31.312Z,987.26
2023-05-21T11:07:31.387Z,987.29
2023-05-21T11:08:31.312Z,987.23
2023-05-21T11:09:31.298Z,987.28
2023-05-21T11:10:31.279Z,987.24
2023-05-21T11:11:31.263Z,987.32
2023-05-21T11:12:31.277Z,987.28
2023-05-21T11:13:31.305Z,987.18
2023-05-21T11:14:31.232Z,987.16
2023-05-21T11:15:31.236Z,987.13
2023-05-21T11:16:31.264Z,987.09
2023-05-21T11:17:31.243Z,987.12
2023-05-21T11:18:31.210Z,987.16
2023-05-21T11:19:33.286Z,987.19
2023-05-21T11:20:32.183Z,987.17
2023-05-21T11:21:31.242Z,987.13
2023-05-21T11:22:31.155Z,987.14
2023-05-21T11:23:31.150Z,987.11
2023-05-21T11:24:31.158Z,987.14
2023-05-21T11:25:31.129Z,987.16
2023-05-21T11:26:31.112Z,987.10
2023-05-21T11:27:31.138Z,987.10
2023-05-21T11:28:31.104Z,987.15
2023-05-21T11:29:31.170Z,987.14
2023-05-21T11:30:31.104Z,987.10
2023-05-21T11:31:31.098Z,987.08
2023-05-21T11:32:31.087Z,987.11
2023-05-21T11:33:32.053Z,987.11
2023-05-21T11:34:31.071Z,986.99
2023-05-21T11:35:31.086Z,986.99
2023-05-21T11:36:31.023Z,987.07
2023-05-21T11:37:31.048Z,987.02
2023-05-21T11:38:31.115Z,987.05
2023-05-21T11:39:31.026Z,987.04
2023-05-21T11:40:31.030Z,987.09
2023-05-21T11:41:30.970Z,987.05
2023-05-21T11:42:31.465Z,986.93
2023-05-21T11:43:30.956Z,986.92
2023-05-21T11:44:30.951Z,986.95
2023-05-21T11:45:30.955Z,986.99
2023-05-21T11:46:30.941Z,987.06
2023-05-21T11:47:30.919Z,986.98
2023-05-21T11:48:32.406Z,986.99
2023-05-21T11:49:30.896Z,987.01
2023-05-21T11:50:30.911Z,987.00
2023-05-21T11:51:30.868Z,986.90
2023-05-21T11:52:30.872Z,986.86
2023-05-21T11:53:30.877Z,987.09
2023-05-21T11:54:30.834Z,986.98
2023-05-21T11:55:30.832Z,986.92
2023-05-21T11:56:30.817Z,986.97
2023-05-21T11:57:30.921Z,986.94
2023-05-21T11:58:30.803Z,986.97
2023-05-21T11:59:30.851Z,986.98
2023-05-21T12:00:30.795Z,987.02
2023-05-21T12:01:30.761Z,986.97
2023-05-21T12:02:30.803Z,987.01
2023-05-21T12:03:30.853Z,986.97
2023-05-21T12:04:30.740Z,986.90
2023-05-21T12:05:30.740Z,986.96
2023-05-21T12:06:30.872Z,987.00
2023-05-21T12:07:30.745Z,986.95
2023-05-21T12:08:30.718Z,986.94
2023-05-21T12:09:30.695Z,986.91
2023-05-21T12:10:30.701Z,986.97
2023-05-21T12:11:30.707Z,986.97
2023-05-21T12:12:41.775Z,986.96
2023-05-21T12:13:32.674Z,986.91
2023-05-21T12:14:30.729Z,986.89
2023-05-21T12:15:30.627Z,986.86
2023-05-21T12:16:30.644Z,986.84
2023-05-21T12:17:30.645Z,986.83
2023-05-21T12:18:30.624Z,986.84
2023-05-21T12:19:30.749Z,986.82
2023-05-21T12:20:30.599Z,986.84
2023-05-21T12:21:30.567Z,986.91
2023-05-21T12:22:30.570Z,986.85
2023-05-21T12:23:30.582Z,986.86
2023-05-21T12:24:30.546Z,986.86
2023-05-21T12:25:30.557Z,986.84
2023-05-21T12:26:30.534Z,986.82
2023-05-21T12:27:30.534Z,986.85
2023-05-21T12:28:30.504Z,986.83
2023-05-21T12:29:30.489Z,986.85